sensor_id;sensor_type;location;lat;lon;timestamp;temperature;humidity
66096;SHT31;53861;53.422;14.530;2023-07-02T00:00:53;17.36;96.76
66096;SHT31;53861;53.422;14.530;2023-07-02T00:09:47;17.33;97.56
66096;SHT31;53861;53.422;14.530;2023-07-02T00:13:49;17.23;97.99
66096;SHT31;53861;53.422;14.530;2023-07-02T00:15:40;17.23;98.19
66096;SHT31;53861;53.422;14.530;2023-07-02T00:18:24;17.19;98.31
66096;SHT31;53861;53.422;14.530;2023-07-02T00:21:00;17.25;98.09
66096;SHT31;53861;53.422;14.530;2023-07-02T00:23:31;17.26;98.25
66096;SHT31;53861;53.422;14.530;2023-07-02T00:26:00;17.25;98.38
66096;SHT31;53861;53.422;14.530;2023-07-02T00:28:28;17.35;98.19
66096;SHT31;53861;53.422;14.530;2023-07-02T00:30:57;17.29;98.22
66096;SHT31;53861;53.422;14.530;2023-07-02T00:33:33;17.39;97.88
66096;SHT31;53861;53.422;14.530;2023-07-02T00:36:29;17.35;98.15
66096;SHT31;53861;53.422;14.530;2023-07-02T00:42:19;17.38;97.97
66096;SHT31;53861;53.422;14.530;2023-07-02T00:44:52;17.36;98.10
66096;SHT31;53861;53.422;14.530;2023-07-02T00:47:27;17.23;97.76
66096;SHT31;53861;53.422;14.530;2023-07-02T00:49:55;17.20;97.83
66096;SHT31;53861;53.422;14.530;2023-07-02T00:53:11;17.23;97.73
66096;SHT31;53861;53.422;14.530;2023-07-02T00:55:37;17.18;97.43
66096;SHT31;53861;53.422;14.530;2023-07-02T00:58:29;17.19;97.63
66096;SHT31;53861;53.422;14.530;2023-07-02T01:01:27;17.11;97.52
66096;SHT31;53861;53.422;14.530;2023-07-02T01:04:08;17.01;97.80
66096;SHT31;53861;53.422;14.530;2023-07-02T01:06:38;17.08;97.83
66096;SHT31;53861;53.422;14.530;2023-07-02T01:09:07;17.01;97.34
66096;SHT31;53861;53.422;14.530;2023-07-02T01:11:46;17.01;97.27
66096;SHT31;53861;53.422;14.530;2023-07-02T01:14:32;16.96;97.36
66096;SHT31;53861;53.422;14.530;2023-07-02T01:17:23;16.89;97.54
66096;SHT31;53861;53.422;14.530;2023-07-02T01:20:26;16.96;97.23
66096;SHT31;53861;53.422;14.530;2023-07-02T01:23:15;16.95;96.88
66096;SHT31;53861;53.422;14.530;2023-07-02T01:25:51;16.87;97.26
66096;SHT31;53861;53.422;14.530;2023-07-02T01:28:33;16.85;97.10
66096;SHT31;53861;53.422;14.530;2023-07-02T01:31:07;16.77;97.20
66096;SHT31;53861;53.422;14.530;2023-07-02T01:33:39;16.69;97.10
66096;SHT31;53861;53.422;14.530;2023-07-02T01:36:10;16.72;97.63
66096;SHT31;53861;53.422;14.530;2023-07-02T01:38:47;16.67;97.66
66096;SHT31;53861;53.422;14.530;2023-07-02T01:41:15;16.79;96.91
66096;SHT31;53861;53.422;14.530;2023-07-02T01:43:46;16.68;96.88
66096;SHT31;53861;53.422;14.530;2023-07-02T01:46:21;16.65;97.05
66096;SHT31;53861;53.422;14.530;2023-07-02T01:48:51;16.65;97.30
66096;SHT31;53861;53.422;14.530;2023-07-02T01:51:31;16.57;96.86
66096;SHT31;53861;53.422;14.530;2023-07-02T01:54:07;16.61;96.49
66096;SHT31;53861;53.422;14.530;2023-07-02T01:57:10;16.57;96.51
66096;SHT31;53861;53.422;14.530;2023-07-02T02:02:26;16.63;95.74
66096;SHT31;53861;53.422;14.530;2023-07-02T02:02:46;16.53;96.24
66096;SHT31;53861;53.422;14.530;2023-07-02T02:05:18;16.44;96.41
66096;SHT31;53861;53.422;14.530;2023-07-02T02:07:50;16.48;96.19
66096;SHT31;53861;53.422;14.530;2023-07-02T02:10:17;16.47;96.35
66096;SHT31;53861;53.422;14.530;2023-07-02T02:12:44;16.34;96.54
66096;SHT31;53861;53.422;14.530;2023-07-02T02:15:14;16.48;95.38
66096;SHT31;53861;53.422;14.530;2023-07-02T02:17:42;16.34;95.96
66096;SHT31;53861;53.422;14.530;2023-07-02T02:20:12;16.26;96.48
66096;SHT31;53861;53.422;14.530;2023-07-02T02:22:43;16.21;96.73
66096;SHT31;53861;53.422;14.530;2023-07-02T02:28:23;16.21;96.31
66096;SHT31;53861;53.422;14.530;2023-07-02T02:30:50;16.20;96.24
66096;SHT31;53861;53.422;14.530;2023-07-02T02:33:18;16.12;96.64
66096;SHT31;53861;53.422;14.530;2023-07-02T02:35:53;16.09;96.80
66096;SHT31;53861;53.422;14.530;2023-07-02T02:38:27;16.13;96.65
66096;SHT31;53861;53.422;14.530;2023-07-02T02:41:06;16.07;96.53
66096;SHT31;53861;53.422;14.530;2023-07-02T02:43:36;15.97;96.88
66096;SHT31;53861;53.422;14.530;2023-07-02T02:46:52;15.90;96.78
66096;SHT31;53861;53.422;14.530;2023-07-02T02:49:11;15.86;96.70
66096;SHT31;53861;53.422;14.530;2023-07-02T02:51:53;15.83;96.97
66096;SHT31;53861;53.422;14.530;2023-07-02T02:54:23;15.78;97.31
66096;SHT31;53861;53.422;14.530;2023-07-02T02:57:04;15.78;97.35
66096;SHT31;53861;53.422;14.530;2023-07-02T02:59:34;15.73;97.36
66096;SHT31;53861;53.422;14.530;2023-07-02T03:02:01;15.78;97.56
66096;SHT31;53861;53.422;14.530;2023-07-02T03:04:32;15.72;97.42
66096;SHT31;53861;53.422;14.530;2023-07-02T03:07:14;15.72;97.46
66096;SHT31;53861;53.422;14.530;2023-07-02T03:09:45;15.81;97.27
66096;SHT31;53861;53.422;14.530;2023-07-02T03:12:20;15.78;97.27
66096;SHT31;53861;53.422;14.530;2023-07-02T03:14:56;15.78;97.14
66096;SHT31;53861;53.422;14.530;2023-07-02T03:17:24;15.78;96.87
66096;SHT31;53861;53.422;14.530;2023-07-02T03:19:51;15.72;96.85
66096;SHT31;53861;53.422;14.530;2023-07-02T03:22:19;15.75;96.75
66096;SHT31;53861;53.422;14.530;2023-07-02T03:24:46;15.76;97.05
66096;SHT31;53861;53.422;14.530;2023-07-02T03:27:27;15.63;96.88
66096;SHT31;53861;53.422;14.530;2023-07-02T03:29:59;15.58;97.01
66096;SHT31;53861;53.422;14.530;2023-07-02T03:32:29;15.55;97.06
66096;SHT31;53861;53.422;14.530;2023-07-02T03:34:56;15.51;96.74
66096;SHT31;53861;53.422;14.530;2023-07-02T03:37:24;15.53;95.99
66096;SHT31;53861;53.422;14.530;2023-07-02T03:40:02;15.51;96.28
66096;SHT31;53861;53.422;14.530;2023-07-02T03:42:34;15.55;95.92
66096;SHT31;53861;53.422;14.530;2023-07-02T03:45:03;15.51;96.13
66096;SHT31;53861;53.422;14.530;2023-07-02T03:47:32;15.41;96.19
66096;SHT31;53861;53.422;14.530;2023-07-02T03:50:03;15.46;96.18
66096;SHT31;53861;53.422;14.530;2023-07-02T03:52:30;15.51;96.40
66096;SHT31;53861;53.422;14.530;2023-07-02T03:55:04;15.51;95.82
66096;SHT31;53861;53.422;14.530;2023-07-02T03:57:32;15.52;95.81
66096;SHT31;53861;53.422;14.530;2023-07-02T04:00:10;15.49;95.68
66096;SHT31;53861;53.422;14.530;2023-07-02T04:02:41;15.48;96.08
66096;SHT31;53861;53.422;14.530;2023-07-02T04:05:11;15.52;96.24
66096;SHT31;53861;53.422;14.530;2023-07-02T04:07:38;15.52;95.75
66096;SHT31;53861;53.422;14.530;2023-07-02T04:10:14;15.53;95.56
66096;SHT31;53861;53.422;14.530;2023-07-02T04:12:43;15.56;95.27
66096;SHT31;53861;53.422;14.530;2023-07-02T04:18:15;15.44;94.93
66096;SHT31;53861;53.422;14.530;2023-07-02T04:20:43;15.44;95.19
66096;SHT31;53861;53.422;14.530;2023-07-02T04:23:12;15.51;94.69
66096;SHT31;53861;53.422;14.530;2023-07-02T04:25:44;15.53;95.02
66096;SHT31;53861;53.422;14.530;2023-07-02T04:28:13;15.61;95.04
66096;SHT31;53861;53.422;14.530;2023-07-02T04:32:08;15.55;94.62
66096;SHT31;53861;53.422;14.530;2023-07-02T04:34:14;15.67;94.49
66096;SHT31;53861;53.422;14.530;2023-07-02T04:36:42;15.62;94.60
66096;SHT31;53861;53.422;14.530;2023-07-02T04:39:10;15.61;94.92
66096;SHT31;53861;53.422;14.530;2023-07-02T04:41:43;15.65;94.60
66096;SHT31;53861;53.422;14.530;2023-07-02T04:44:10;15.69;94.61
66096;SHT31;53861;53.422;14.530;2023-07-02T04:46:49;15.69;94.69
66096;SHT31;53861;53.422;14.530;2023-07-02T04:49:20;15.73;94.76
66096;SHT31;53861;53.422;14.530;2023-07-02T04:51:50;15.72;94.80
66096;SHT31;53861;53.422;14.530;2023-07-02T04:54:29;15.78;94.12
66096;SHT31;53861;53.422;14.530;2023-07-02T04:57:09;15.76;94.27
66096;SHT31;53861;53.422;14.530;2023-07-02T04:59:43;15.95;93.89
66096;SHT31;53861;53.422;14.530;2023-07-02T05:02:10;15.89;93.75
66096;SHT31;53861;53.422;14.530;2023-07-02T05:04:43;15.85;93.44
66096;SHT31;53861;53.422;14.530;2023-07-02T05:07:10;16.02;93.23
66096;SHT31;53861;53.422;14.530;2023-07-02T05:09:40;16.07;92.84
66096;SHT31;53861;53.422;14.530;2023-07-02T05:12:10;16.04;93.09
66096;SHT31;53861;53.422;14.530;2023-07-02T05:14:54;16.04;92.26
66096;SHT31;53861;53.422;14.530;2023-07-02T05:17:21;16.20;92.65
66096;SHT31;53861;53.422;14.530;2023-07-02T05:19:50;16.38;92.15
66096;SHT31;53861;53.422;14.530;2023-07-02T05:22:25;16.57;91.68
66096;SHT31;53861;53.422;14.530;2023-07-02T05:24:55;16.64;90.91
66096;SHT31;53861;53.422;14.530;2023-07-02T05:27:34;16.75;90.36
66096;SHT31;53861;53.422;14.530;2023-07-02T05:30:04;16.75;90.76
66096;SHT31;53861;53.422;14.530;2023-07-02T05:32:33;16.77;90.58
66096;SHT31;53861;53.422;14.530;2023-07-02T05:35:10;16.96;89.78
66096;SHT31;53861;53.422;14.530;2023-07-02T05:37:51;16.94;89.55
66096;SHT31;53861;53.422;14.530;2023-07-02T05:40:24;17.01;90.17
66096;SHT31;53861;53.422;14.530;2023-07-02T05:42:59;17.08;88.71
66096;SHT31;53861;53.422;14.530;2023-07-02T05:45:28;17.11;89.23
66096;SHT31;53861;53.422;14.530;2023-07-02T05:47:55;17.18;89.23
66096;SHT31;53861;53.422;14.530;2023-07-02T05:50:49;17.09;87.88
66096;SHT31;53861;53.422;14.530;2023-07-02T05:53:18;17.05;88.59
66096;SHT31;53861;53.422;14.530;2023-07-02T05:55:53;17.08;88.32
66096;SHT31;53861;53.422;14.530;2023-07-02T05:58:26;17.05;88.97
66096;SHT31;53861;53.422;14.530;2023-07-02T06:00:53;16.91;88.65
66096;SHT31;53861;53.422;14.530;2023-07-02T06:03:35;17.29;87.55
66096;SHT31;53861;53.422;14.530;2023-07-02T06:06:14;17.49;86.91
66096;SHT31;53861;53.422;14.530;2023-07-02T06:08:55;17.79;85.97
66096;SHT31;53861;53.422;14.530;2023-07-02T06:11:22;17.53;86.69
66096;SHT31;53861;53.422;14.530;2023-07-02T06:13:49;17.70;86.37
66096;SHT31;53861;53.422;14.530;2023-07-02T06:16:20;17.77;86.61
66096;SHT31;53861;53.422;14.530;2023-07-02T06:18:51;18.11;85.68
66096;SHT31;53861;53.422;14.530;2023-07-02T06:21:24;18.22;84.06
66096;SHT31;53861;53.422;14.530;2023-07-02T06:23:55;18.49;83.56
66096;SHT31;53861;53.422;14.530;2023-07-02T06:26:23;18.40;84.03
66096;SHT31;53861;53.422;14.530;2023-07-02T06:28:50;18.56;81.99
66096;SHT31;53861;53.422;14.530;2023-07-02T06:31:24;18.20;83.28
66096;SHT31;53861;53.422;14.530;2023-07-02T06:33:54;18.47;83.38
66096;SHT31;53861;53.422;14.530;2023-07-02T06:39:16;18.81;81.61
66096;SHT31;53861;53.422;14.530;2023-07-02T06:41:46;19.28;81.59
66096;SHT31;53861;53.422;14.530;2023-07-02T06:44:15;19.49;82.50
66096;SHT31;53861;53.422;14.530;2023-07-02T06:46:46;19.74;79.91
66096;SHT31;53861;53.422;14.530;2023-07-02T06:49:17;19.23;82.09
66096;SHT31;53861;53.422;14.530;2023-07-02T06:51:58;18.88;80.84
66096;SHT31;53861;53.422;14.530;2023-07-02T06:54:36;18.69;81.96
66096;SHT31;53861;53.422;14.530;2023-07-02T06:57:09;18.68;81.56
66096;SHT31;53861;53.422;14.530;2023-07-02T06:59:45;18.83;81.20
66096;SHT31;53861;53.422;14.530;2023-07-02T07:02:20;18.66;80.22
66096;SHT31;53861;53.422;14.530;2023-07-02T07:04:56;18.89;79.66
66096;SHT31;53861;53.422;14.530;2023-07-02T07:10:41;19.13;78.28
66096;SHT31;53861;53.422;14.530;2023-07-02T07:13:12;19.49;78.01
66096;SHT31;53861;53.422;14.530;2023-07-02T07:15:39;19.95;77.59
66096;SHT31;53861;53.422;14.530;2023-07-02T07:18:08;20.46;77.58
66096;SHT31;53861;53.422;14.530;2023-07-02T07:20:44;20.84;74.76
66096;SHT31;53861;53.422;14.530;2023-07-02T07:23:11;19.74;75.34
66096;SHT31;53861;53.422;14.530;2023-07-02T07:25:42;19.81;77.31
66096;SHT31;53861;53.422;14.530;2023-07-02T07:28:15;19.56;77.12
66096;SHT31;53861;53.422;14.530;2023-07-02T07:30:45;20.09;76.21
66096;SHT31;53861;53.422;14.530;2023-07-02T07:33:12;19.95;75.60
66096;SHT31;53861;53.422;14.530;2023-07-02T07:35:39;20.60;74.98
66096;SHT31;53861;53.422;14.530;2023-07-02T07:38:08;20.91;74.38
66096;SHT31;53861;53.422;14.530;2023-07-02T07:40:36;21.41;73.37
66096;SHT31;53861;53.422;14.530;2023-07-02T07:43:07;21.28;71.60
66096;SHT31;53861;53.422;14.530;2023-07-02T07:45:35;21.71;70.95
66096;SHT31;53861;53.422;14.530;2023-07-02T07:48:02;21.26;70.94
66096;SHT31;53861;53.422;14.530;2023-07-02T07:50:33;20.93;71.96
66096;SHT31;53861;53.422;14.530;2023-07-02T07:53:03;20.46;71.68
66096;SHT31;53861;53.422;14.530;2023-07-02T07:55:43;20.84;73.29
66096;SHT31;53861;53.422;14.530;2023-07-02T07:58:26;21.65;70.02
66096;SHT31;53861;53.422;14.530;2023-07-02T08:00:54;22.24;67.72
66096;SHT31;53861;53.422;14.530;2023-07-02T08:03:22;21.71;68.18
66096;SHT31;53861;53.422;14.530;2023-07-02T08:06:01;20.55;70.33
66096;SHT31;53861;53.422;14.530;2023-07-02T08:08:28;21.45;69.40
66096;SHT31;53861;53.422;14.530;2023-07-02T08:10:56;21.71;67.15
66096;SHT31;53861;53.422;14.530;2023-07-02T08:13:31;21.81;65.41
66096;SHT31;53861;53.422;14.530;2023-07-02T08:16:02;21.58;66.52
66096;SHT31;53861;53.422;14.530;2023-07-02T08:18:33;21.15;67.47
66096;SHT31;53861;53.422;14.530;2023-07-02T08:21:06;20.28;67.74
66096;SHT31;53861;53.422;14.530;2023-07-02T08:23:39;20.04;69.70
66096;SHT31;53861;53.422;14.530;2023-07-02T08:26:06;20.46;69.50
66096;SHT31;53861;53.422;14.530;2023-07-02T08:28:36;20.45;68.26
66096;SHT31;53861;53.422;14.530;2023-07-02T08:31:05;20.36;67.06
66096;SHT31;53861;53.422;14.530;2023-07-02T08:33:34;20.01;68.43
66096;SHT31;53861;53.422;14.530;2023-07-02T08:36:04;21.01;66.24
66096;SHT31;53861;53.422;14.530;2023-07-02T08:38:39;20.86;65.55
66096;SHT31;53861;53.422;14.530;2023-07-02T08:41:11;21.40;62.70
66096;SHT31;53861;53.422;14.530;2023-07-02T08:43:41;22.19;61.03
66096;SHT31;53861;53.422;14.530;2023-07-02T08:46:09;21.38;62.04
66096;SHT31;53861;53.422;14.530;2023-07-02T08:48:37;21.31;63.35
66096;SHT31;53861;53.422;14.530;2023-07-02T08:51:04;22.19;62.48
66096;SHT31;53861;53.422;14.530;2023-07-02T08:53:31;22.02;62.24
66096;SHT31;53861;53.422;14.530;2023-07-02T08:56:04;21.69;60.67
66096;SHT31;53861;53.422;14.530;2023-07-02T09:04:22;21.32;61.66
66096;SHT31;53861;53.422;14.530;2023-07-02T09:06:50;22.24;61.27
66096;SHT31;53861;53.422;14.530;2023-07-02T09:09:20;23.22;58.01
66096;SHT31;53861;53.422;14.530;2023-07-02T09:11:48;23.00;58.20
66096;SHT31;53861;53.422;14.530;2023-07-02T09:14:25;23.29;58.79
66096;SHT31;53861;53.422;14.530;2023-07-02T09:17:02;22.78;61.01
66096;SHT31;53861;53.422;14.530;2023-07-02T09:19:31;22.32;58.87
66096;SHT31;53861;53.422;14.530;2023-07-02T09:22:03;22.06;60.72
66096;SHT31;53861;53.422;14.530;2023-07-02T09:24:31;22.19;61.30
66096;SHT31;53861;53.422;14.530;2023-07-02T09:27:00;23.34;60.96
66096;SHT31;53861;53.422;14.530;2023-07-02T09:29:28;24.54;59.31
66096;SHT31;53861;53.422;14.530;2023-07-02T09:31:55;23.04;58.20
66096;SHT31;53861;53.422;14.530;2023-07-02T09:34:26;21.66;59.44
66096;SHT31;53861;53.422;14.530;2023-07-02T09:36:55;22.30;63.04
66096;SHT31;53861;53.422;14.530;2023-07-02T09:39:25;23.32;59.92
66096;SHT31;53861;53.422;14.530;2023-07-02T09:41:52;23.08;57.79
66096;SHT31;53861;53.422;14.530;2023-07-02T09:44:20;23.54;58.65
66096;SHT31;53861;53.422;14.530;2023-07-02T09:46:49;22.64;59.13
66096;SHT31;53861;53.422;14.530;2023-07-02T09:49:20;22.47;59.99
66096;SHT31;53861;53.422;14.530;2023-07-02T09:51:55;22.17;58.85
66096;SHT31;53861;53.422;14.530;2023-07-02T09:54:26;21.96;59.38
66096;SHT31;53861;53.422;14.530;2023-07-02T09:56:58;22.88;56.69
66096;SHT31;53861;53.422;14.530;2023-07-02T09:59:26;23.62;55.72
66096;SHT31;53861;53.422;14.530;2023-07-02T10:01:54;22.87;57.09
66096;SHT31;53861;53.422;14.530;2023-07-02T10:04:25;23.17;57.96
66096;SHT31;53861;53.422;14.530;2023-07-02T10:06:53;22.97;57.17
66096;SHT31;53861;53.422;14.530;2023-07-02T10:09:38;23.12;55.92
66096;SHT31;53861;53.422;14.530;2023-07-02T10:12:16;22.06;55.40
66096;SHT31;53861;53.422;14.530;2023-07-02T10:14:49;22.06;57.70
66096;SHT31;53861;53.422;14.530;2023-07-02T10:17:31;22.22;57.53
66096;SHT31;53861;53.422;14.530;2023-07-02T10:19:59;22.84;53.90
66096;SHT31;53861;53.422;14.530;2023-07-02T10:22:27;23.35;55.15
66096;SHT31;53861;53.422;14.530;2023-07-02T10:24:56;22.40;55.56
66096;SHT31;53861;53.422;14.530;2023-07-02T10:27:43;21.93;56.21
66096;SHT31;53861;53.422;14.530;2023-07-02T10:30:14;22.83;57.47
66096;SHT31;53861;53.422;14.530;2023-07-02T10:32:42;23.88;51.93
66096;SHT31;53861;53.422;14.530;2023-07-02T10:35:15;24.03;50.54
66096;SHT31;53861;53.422;14.530;2023-07-02T10:37:51;23.59;52.47
66096;SHT31;53861;53.422;14.530;2023-07-02T10:40:20;24.84;50.79
66096;SHT31;53861;53.422;14.530;2023-07-02T10:42:50;24.82;49.90
66096;SHT31;53861;53.422;14.530;2023-07-02T10:45:18;25.11;49.51
66096;SHT31;53861;53.422;14.530;2023-07-02T10:47:46;25.10;49.31
66096;SHT31;53861;53.422;14.530;2023-07-02T10:50:27;25.69;48.65
66096;SHT31;53861;53.422;14.530;2023-07-02T10:52:56;26.17;47.46
66096;SHT31;53861;53.422;14.530;2023-07-02T10:55:25;25.07;52.53
66096;SHT31;53861;53.422;14.530;2023-07-02T11:00:45;26.79;48.28
66096;SHT31;53861;53.422;14.530;2023-07-02T11:03:17;26.05;48.13
66096;SHT31;53861;53.422;14.530;2023-07-02T11:05:54;25.82;47.20
66096;SHT31;53861;53.422;14.530;2023-07-02T11:08:22;26.47;48.96
66096;SHT31;53861;53.422;14.530;2023-07-02T11:10:52;26.31;49.74
66096;SHT31;53861;53.422;14.530;2023-07-02T11:13:30;27.13;51.66
66096;SHT31;53861;53.422;14.530;2023-07-02T11:15:57;27.25;48.02
66096;SHT31;53861;53.422;14.530;2023-07-02T11:18:23;27.37;49.58
66096;SHT31;53861;53.422;14.530;2023-07-02T11:20:50;27.42;48.28
66096;SHT31;53861;53.422;14.530;2023-07-02T11:23:18;26.25;48.69
66096;SHT31;53861;53.422;14.530;2023-07-02T11:25:56;26.44;47.93
66096;SHT31;53861;53.422;14.530;2023-07-02T11:28:23;26.23;46.51
66096;SHT31;53861;53.422;14.530;2023-07-02T11:30:51;26.49;48.30
66096;SHT31;53861;53.422;14.530;2023-07-02T11:33:18;26.71;47.50
66096;SHT31;53861;53.422;14.530;2023-07-02T11:35:45;26.41;44.68
66096;SHT31;53861;53.422;14.530;2023-07-02T11:38:12;25.10;48.53
66096;SHT31;53861;53.422;14.530;2023-07-02T11:40:39;25.79;47.50
66096;SHT31;53861;53.422;14.530;2023-07-02T11:43:08;26.81;48.20
66096;SHT31;53861;53.422;14.530;2023-07-02T11:45:34;25.82;45.99
66096;SHT31;53861;53.422;14.530;2023-07-02T11:48:01;25.58;48.39
66096;SHT31;53861;53.422;14.530;2023-07-02T11:50:28;25.97;47.66
66096;SHT31;53861;53.422;14.530;2023-07-02T11:52:58;26.61;47.07
66096;SHT31;53861;53.422;14.530;2023-07-02T11:55:25;26.89;43.09
66096;SHT31;53861;53.422;14.530;2023-07-02T11:57:55;26.58;42.90
66096;SHT31;53861;53.422;14.530;2023-07-02T12:00:23;25.63;44.55
66096;SHT31;53861;53.422;14.530;2023-07-02T12:02:51;25.49;43.93
66096;SHT31;53861;53.422;14.530;2023-07-02T12:05:18;26.24;48.30
66096;SHT31;53861;53.422;14.530;2023-07-02T12:07:45;25.94;44.23
66096;SHT31;53861;53.422;14.530;2023-07-02T12:10:12;26.12;44.59
66096;SHT31;53861;53.422;14.530;2023-07-02T12:12:39;26.00;44.16
66096;SHT31;53861;53.422;14.530;2023-07-02T12:15:07;25.65;45.04
66096;SHT31;53861;53.422;14.530;2023-07-02T12:17:35;26.58;45.15
66096;SHT31;53861;53.422;14.530;2023-07-02T12:20:02;26.82;45.12
66096;SHT31;53861;53.422;14.530;2023-07-02T12:22:29;26.14;44.38
66096;SHT31;53861;53.422;14.530;2023-07-02T12:24:56;26.12;46.36
66096;SHT31;53861;53.422;14.530;2023-07-02T12:27:24;25.65;45.42
66096;SHT31;53861;53.422;14.530;2023-07-02T12:29:52;25.83;45.95
66096;SHT31;53861;53.422;14.530;2023-07-02T12:32:20;25.87;45.69
66096;SHT31;53861;53.422;14.530;2023-07-02T12:34:48;24.44;47.05
66096;SHT31;53861;53.422;14.530;2023-07-02T12:37:15;23.82;49.36
66096;SHT31;53861;53.422;14.530;2023-07-02T12:39:43;24.84;48.88
66096;SHT31;53861;53.422;14.530;2023-07-02T12:42:10;25.42;49.52
66096;SHT31;53861;53.422;14.530;2023-07-02T12:44:37;25.38;47.43
66096;SHT31;53861;53.422;14.530;2023-07-02T12:47:04;25.08;49.45
66096;SHT31;53861;53.422;14.530;2023-07-02T12:49:31;24.36;50.34
66096;SHT31;53861;53.422;14.530;2023-07-02T12:52:00;23.99;50.81
66096;SHT31;53861;53.422;14.530;2023-07-02T12:54:28;23.69;51.45
66096;SHT31;53861;53.422;14.530;2023-07-02T12:56:55;22.83;51.87
66096;SHT31;53861;53.422;14.530;2023-07-02T12:59:22;23.41;52.80
66096;SHT31;53861;53.422;14.530;2023-07-02T13:01:49;24.60;51.03
66096;SHT31;53861;53.422;14.530;2023-07-02T13:04:15;24.63;47.53
66096;SHT31;53861;53.422;14.530;2023-07-02T13:06:42;25.02;48.85
66096;SHT31;53861;53.422;14.530;2023-07-02T13:09:13;25.53;48.21
66096;SHT31;53861;53.422;14.530;2023-07-02T13:11:40;25.46;47.92
66096;SHT31;53861;53.422;14.530;2023-07-02T13:14:12;25.56;46.96
66096;SHT31;53861;53.422;14.530;2023-07-02T13:16:39;24.53;49.92
66096;SHT31;53861;53.422;14.530;2023-07-02T13:19:06;25.46;49.04
66096;SHT31;53861;53.422;14.530;2023-07-02T13:21:38;25.21;48.10
66096;SHT31;53861;53.422;14.530;2023-07-02T13:24:08;25.67;46.35
66096;SHT31;53861;53.422;14.530;2023-07-02T13:26:36;25.65;45.81
66096;SHT31;53861;53.422;14.530;2023-07-02T13:29:03;25.96;46.01
66096;SHT31;53861;53.422;14.530;2023-07-02T13:31:30;26.45;42.79
66096;SHT31;53861;53.422;14.530;2023-07-02T13:33:57;25.31;44.96
66096;SHT31;53861;53.422;14.530;2023-07-02T13:36:24;24.07;45.76
66096;SHT31;53861;53.422;14.530;2023-07-02T13:38:53;23.82;46.85
66096;SHT31;53861;53.422;14.530;2023-07-02T13:41:21;24.39;46.65
66096;SHT31;53861;53.422;14.530;2023-07-02T13:43:49;24.98;46.70
66096;SHT31;53861;53.422;14.530;2023-07-02T13:46:19;23.93;47.61
66096;SHT31;53861;53.422;14.530;2023-07-02T13:48:46;23.73;47.47
66096;SHT31;53861;53.422;14.530;2023-07-02T13:51:13;23.15;48.30
66096;SHT31;53861;53.422;14.530;2023-07-02T13:53:41;22.98;48.55
66096;SHT31;53861;53.422;14.530;2023-07-02T13:56:08;23.03;48.10
66096;SHT31;53861;53.422;14.530;2023-07-02T13:58:46;23.05;47.89
66096;SHT31;53861;53.422;14.530;2023-07-02T14:01:14;23.82;49.27
66096;SHT31;53861;53.422;14.530;2023-07-02T14:03:41;23.48;47.48
66096;SHT31;53861;53.422;14.530;2023-07-02T14:06:08;23.82;47.58
66096;SHT31;53861;53.422;14.530;2023-07-02T14:08:35;24.70;45.96
66096;SHT31;53861;53.422;14.530;2023-07-02T14:11:03;24.77;46.27
66096;SHT31;53861;53.422;14.530;2023-07-02T14:13:30;24.72;46.26
66096;SHT31;53861;53.422;14.530;2023-07-02T14:15:58;24.71;46.30
66096;SHT31;53861;53.422;14.530;2023-07-02T14:18:25;24.81;45.68
66096;SHT31;53861;53.422;14.530;2023-07-02T14:20:52;24.67;45.12
66096;SHT31;53861;53.422;14.530;2023-07-02T14:23:19;24.96;44.61
66096;SHT31;53861;53.422;14.530;2023-07-02T14:25:46;25.04;46.26
66096;SHT31;53861;53.422;14.530;2023-07-02T14:28:13;25.21;46.42
66096;SHT31;53861;53.422;14.530;2023-07-02T14:30:40;25.18;46.11
66096;SHT31;53861;53.422;14.530;2023-07-02T14:33:09;24.10;47.46
66096;SHT31;53861;53.422;14.530;2023-07-02T14:35:36;24.59;47.73
66096;SHT31;53861;53.422;14.530;2023-07-02T14:38:03;24.53;48.19
66096;SHT31;53861;53.422;14.530;2023-07-02T14:40:31;24.29;48.86
66096;SHT31;53861;53.422;14.530;2023-07-02T14:42:58;24.23;49.36
66096;SHT31;53861;53.422;14.530;2023-07-02T14:45:25;24.78;48.90
66096;SHT31;53861;53.422;14.530;2023-07-02T14:47:52;24.95;47.24
66096;SHT31;53861;53.422;14.530;2023-07-02T14:50:26;24.03;46.15
66096;SHT31;53861;53.422;14.530;2023-07-02T14:52:54;23.85;47.24
66096;SHT31;53861;53.422;14.530;2023-07-02T14:55:21;23.96;47.36
66096;SHT31;53861;53.422;14.530;2023-07-02T14:57:49;24.21;45.34
66096;SHT31;53861;53.422;14.530;2023-07-02T15:00:16;23.96;45.40
66096;SHT31;53861;53.422;14.530;2023-07-02T15:02:45;24.03;44.54
66096;SHT31;53861;53.422;14.530;2023-07-02T15:05:15;23.90;44.56
66096;SHT31;53861;53.422;14.530;2023-07-02T15:07:43;24.03;43.82
66096;SHT31;53861;53.422;14.530;2023-07-02T15:10:10;24.29;45.82
66096;SHT31;53861;53.422;14.530;2023-07-02T15:12:37;24.24;45.09
66096;SHT31;53861;53.422;14.530;2023-07-02T15:15:05;24.17;44.93
66096;SHT31;53861;53.422;14.530;2023-07-02T15:17:32;24.02;44.99
66096;SHT31;53861;53.422;14.530;2023-07-02T15:20:02;23.49;45.75
66096;SHT31;53861;53.422;14.530;2023-07-02T15:22:29;22.73;47.35
66096;SHT31;53861;53.422;14.530;2023-07-02T15:24:57;22.68;47.59
66096;SHT31;53861;53.422;14.530;2023-07-02T15:27:25;22.63;47.76
66096;SHT31;53861;53.422;14.530;2023-07-02T15:29:52;22.71;47.54
66096;SHT31;53861;53.422;14.530;2023-07-02T15:32:19;22.73;47.58
66096;SHT31;53861;53.422;14.530;2023-07-02T15:34:46;22.50;47.99
66096;SHT31;53861;53.422;14.530;2023-07-02T15:37:13;22.52;48.45
66096;SHT31;53861;53.422;14.530;2023-07-02T15:39:40;22.88;48.72
66096;SHT31;53861;53.422;14.530;2023-07-02T15:42:08;23.15;47.84
66096;SHT31;53861;53.422;14.530;2023-07-02T15:44:35;23.42;48.73
66096;SHT31;53861;53.422;14.530;2023-07-02T15:47:06;23.61;48.14
66096;SHT31;53861;53.422;14.530;2023-07-02T15:49:34;23.21;47.94
66096;SHT31;53861;53.422;14.530;2023-07-02T15:52:01;23.51;47.00
66096;SHT31;53861;53.422;14.530;2023-07-02T15:54:31;23.24;46.15
66096;SHT31;53861;53.422;14.530;2023-07-02T15:57:01;23.14;46.73
66096;SHT31;53861;53.422;14.530;2023-07-02T15:59:29;22.98;47.47
66096;SHT31;53861;53.422;14.530;2023-07-02T16:01:56;23.11;46.62
66096;SHT31;53861;53.422;14.530;2023-07-02T16:04:25;23.18;47.01
66096;SHT31;53861;53.422;14.530;2023-07-02T16:07:15;22.97;47.14
66096;SHT31;53861;53.422;14.530;2023-07-02T16:09:42;22.74;47.80
66096;SHT31;53861;53.422;14.530;2023-07-02T16:12:09;22.80;47.48